Time;durP1;ratioP1;P1;durP2;ratioP2;P2;SDS_P1;SDS_P2;PMS_P1;PMS_P2;Temp;Humidity;BMP_temperature;BMP_pressure;BME280_temperature;BME280_humidity;BME280_pressure;Samples;Min_cycle;Max_cycle;Signal;HPM_P1;HPM_P2
2020/12/04 00:00:12;;;;;;;16.70;10.57;;;1.60;99.90;;;;;;5033598;28;20445;-91
2020/12/04 00:02:38;;;;;;;15.60;10.30;;;1.60;99.90;;;;;;5033522;28;20455;-86
2020/12/04 00:05:05;;;;;;;14.87;11.63;;;1.70;99.90;;;;;;5032613;28;20450;-84
2020/12/04 00:07:31;;;;;;;15.40;10.00;;;1.90;99.90;;;;;;5029861;28;20502;-86
2020/12/04 00:09:58;;;;;;;15.20;10.37;;;1.70;99.90;;;;;;5032436;28;20439;-85
2020/12/04 00:12:25;;;;;;;15.87;10.53;;;1.80;99.90;;;;;;5029857;28;20441;-85
2020/12/04 00:14:52;;;;;;;16.97;10.40;;;1.80;99.90;;;;;;5029715;28;20821;-85
2020/12/04 00:17:18;;;;;;;15.40;10.13;;;1.80;99.90;;;;;;5034988;28;20442;-84
2020/12/04 00:19:44;;;;;;;15.80;10.50;;;1.70;99.90;;;;;;5033371;28;20453;-85
2020/12/04 00:22:11;;;;;;;14.00;10.50;;;1.70;99.90;;;;;;5027555;28;20449;-85
2020/12/04 00:24:37;;;;;;;16.40;10.93;;;1.60;99.90;;;;;;5032789;28;20456;-85
2020/12/04 00:27:03;;;;;;;14.27;9.50;;;1.70;99.90;;;;;;5033068;28;20875;-87
2020/12/04 00:29:30;;;;;;;16.67;11.00;;;1.60;99.90;;;;;;5032727;28;20445;-84
2020/12/04 00:31:57;;;;;;;16.00;10.60;;;1.60;99.90;;;;;;5032423;28;20446;-84
2020/12/04 00:34:24;;;;;;;15.80;10.67;;;1.60;99.90;;;;;;5031614;28;20444;-88
2020/12/04 00:36:51;;;;;;;16.00;9.97;;;1.60;99.90;;;;;;5032082;28;20451;-85
2020/12/04 00:39:18;;;;;;;14.63;10.33;;;1.60;99.90;;;;;;5032302;28;20800;-92
2020/12/04 00:41:49;;;;;;;14.97;9.97;;;1.60;99.90;;;;;;5032147;28;20441;-85
2020/12/04 00:44:16;;;;;;;20.67;11.63;;;1.70;99.90;;;;;;5033730;28;20545;-85
2020/12/04 00:46:43;;;;;;;16.20;9.67;;;1.70;99.90;;;;;;5036282;28;20487;-91
2020/12/04 00:49:10;;;;;;;14.80;10.30;;;1.60;99.90;;;;;;5034918;28;20477;-84
2020/12/04 00:51:36;;;;;;;17.10;10.97;;;1.60;99.90;;;;;;5036124;28;20454;-85
2020/12/04 00:54:02;;;;;;;15.57;11.30;;;1.60;99.90;;;;;;5036749;28;20447;-92
2020/12/04 00:56:32;;;;;;;21.00;14.03;;;1.60;99.90;;;;;;5036677;28;20793;-91
2020/12/04 00:58:58;;;;;;;17.33;11.03;;;1.60;99.90;;;;;;5036495;28;20490;-89
2020/12/04 01:01:25;;;;;;;21.50;11.50;;;1.60;99.90;;;;;;5036242;28;20450;-84
2020/12/04 01:03:52;;;;;;;14.90;9.80;;;1.50;99.90;;;;;;5035333;28;20454;-85
2020/12/04 01:06:19;;;;;;;14.80;9.37;;;0.90;99.90;;;;;;5040608;28;20611;-84
2020/12/04 01:08:45;;;;;;;15.60;11.03;;;1.40;99.90;;;;;;5056123;28;20454;-84
2020/12/04 01:11:12;;;;;;;15.20;11.00;;;1.60;99.90;;;;;;5055877;28;20934;-84
2020/12/04 01:13:39;;;;;;;17.30;10.50;;;1.60;99.90;;;;;;5056274;28;20448;-84
2020/12/04 01:16:08;;;;;;;15.70;9.83;;;1.60;99.90;;;;;;5056040;28;20434;-88
2020/12/04 01:18:35;;;;;;;19.70;11.93;;;1.50;99.90;;;;;;5054807;28;20941;-88
2020/12/04 01:21:02;;;;;;;17.17;11.30;;;1.60;99.90;;;;;;5055992;28;20447;-83
2020/12/04 01:23:28;;;;;;;17.60;11.10;;;1.60;99.90;;;;;;5055383;28;20835;-84
2020/12/04 01:25:55;;;;;;;16.53;10.30;;;1.60;99.90;;;;;;5055811;28;20461;-86
2020/12/04 01:28:21;;;;;;;19.07;10.37;;;1.50;99.90;;;;;;5055787;28;20496;-85
2020/12/04 01:30:47;;;;;;;16.27;10.30;;;1.40;99.90;;;;;;5055658;28;20448;-92
2020/12/04 01:33:13;;;;;;;16.17;11.70;;;1.60;99.90;;;;;;5055991;28;20442;-84
2020/12/04 01:35:40;;;;;;;11.43;8.50;;;1.40;99.90;;;;;;5054835;28;20452;-89
2020/12/04 01:38:07;;;;;;;16.43;10.87;;;1.60;99.90;;;;;;5055831;28;20437;-83
2020/12/04 01:40:33;;;;;;;15.57;10.23;;;1.40;99.90;;;;;;5056014;28;20446;-89
2020/12/04 01:43:00;;;;;;;15.83;9.90;;;1.50;99.90;;;;;;5055591;28;20457;-84
2020/12/04 01:45:26;;;;;;;17.53;11.00;;;1.60;99.90;;;;;;5057096;28;20446;-86
2020/12/04 01:47:53;;;;;;;15.30;10.20;;;1.60;99.90;;;;;;5058010;28;20497;-87
2020/12/04 01:50:20;;;;;;;17.27;10.70;;;1.70;99.90;;;;;;5056277;28;20465;-86
2020/12/04 01:52:49;;;;;;;15.50;10.47;;;1.70;99.90;;;;;;5056140;28;20450;-90
2020/12/04 01:55:17;;;;;;;17.30;10.90;;;1.60;99.90;;;;;;5055522;28;20902;-85
2020/12/04 01:57:44;;;;;;;13.77;10.00;;;1.60;99.90;;;;;;5055700;28;20457;-90
2020/12/04 02:00:11;;;;;;;16.40;11.00;;;1.70;99.90;;;;;;5055688;28;20920;-88
2020/12/04 02:02:37;;;;;;;14.63;10.07;;;1.60;99.90;;;;;;5055453;28;20454;-85
2020/12/04 02:05:04;;;;;;;13.30;8.67;;;1.60;99.90;;;;;;5054512;28;20450;-88
2020/12/04 02:07:39;;;;;;;14.07;9.93;;;1.60;99.90;;;;;;5055492;28;20853;-84
2020/12/04 02:10:18;;;;;;;13.90;9.43;;;1.60;99.90;;;;;;5055750;28;20453;-88
2020/12/04 02:12:46;;;;;;;12.87;9.03;;;1.50;99.90;;;;;;5051916;28;20532;-85
2020/12/04 02:15:12;;;;;;;14.33;9.50;;;1.40;99.90;;;;;;5055222;28;20459;-85
2020/12/04 02:17:40;;;;;;;13.90;10.50;;;1.50;99.90;;;;;;5055290;28;20439;-86
2020/12/04 02:20:07;;;;;;;15.20;9.40;;;1.50;99.90;;;;;;5054543;28;20445;-87
2020/12/04 02:22:35;;;;;;;12.83;9.00;;;1.40;99.90;;;;;;5052196;28;20845;-84
2020/12/04 02:25:03;;;;;;;14.70;10.10;;;1.40;99.90;;;;;;5052181;28;20442;-86
2020/12/04 02:27:29;;;;;;;15.23;11.07;;;1.40;99.90;;;;;;5053476;28;20500;-85
2020/12/04 02:29:55;;;;;;;20.20;10.70;;;1.40;99.90;;;;;;5054889;28;20457;-89
2020/12/04 02:32:21;;;;;;;17.33;10.30;;;1.40;99.90;;;;;;5054988;28;20455;-83
2020/12/04 02:34:48;;;;;;;13.77;10.07;;;1.50;99.90;;;;;;5053844;28;20441;-89
2020/12/04 02:37:14;;;;;;;14.37;9.93;;;1.50;99.90;;;;;;5054820;28;20446;-83
2020/12/04 02:39:41;;;;;;;17.53;10.07;;;1.50;99.90;;;;;;5054875;28;20449;-85
2020/12/04 02:42:08;;;;;;;14.20;10.67;;;1.40;99.90;;;;;;5054914;28;20445;-85
2020/12/04 02:44:34;;;;;;;16.27;11.00;;;1.40;99.90;;;;;;5054761;28;20443;-89
2020/12/04 02:47:00;;;;;;;15.97;10.23;;;1.30;99.90;;;;;;5055069;28;20485;-84
2020/12/04 02:49:27;;;;;;;16.03;10.57;;;1.40;99.90;;;;;;5053390;28;20471;-88
2020/12/04 02:51:55;;;;;;;16.70;10.37;;;1.40;99.90;;;;;;5054421;28;20441;-86
2020/12/04 02:54:21;;;;;;;14.23;9.80;;;1.50;99.90;;;;;;5054352;28;20449;-84
2020/12/04 02:56:48;;;;;;;16.70;10.80;;;1.50;99.90;;;;;;5054554;28;20446;-90
2020/12/04 02:59:14;;;;;;;13.43;9.30;;;1.50;99.90;;;;;;5054755;28;20516;-88
2020/12/04 03:01:40;;;;;;;17.10;11.03;;;1.50;99.90;;;;;;5054403;28;20878;-83
2020/12/04 03:04:07;;;;;;;17.57;11.50;;;1.60;99.90;;;;;;5053445;28;20446;-91
2020/12/04 03:06:33;;;;;;;18.63;11.63;;;1.50;99.90;;;;;;5054446;28;20442;-89
2020/12/04 03:09:00;;;;;;;15.23;11.07;;;1.50;99.90;;;;;;5054599;28;20505;-90
2020/12/04 03:11:26;;;;;;;16.87;10.80;;;1.50;99.90;;;;;;5054432;28;20500;-88
2020/12/04 03:13:53;;;;;;;15.70;10.33;;;1.40;99.90;;;;;;5054232;28;20445;-89
2020/12/04 03:16:20;;;;;;;18.17;10.73;;;1.40;99.90;;;;;;5054174;28;20451;-86
2020/12/04 03:18:46;;;;;;;17.83;9.90;;;1.40;99.90;;;;;;5056006;28;20789;-89
2020/12/04 03:21:12;;;;;;;13.67;9.37;;;1.50;99.90;;;;;;5054512;28;20427;-87
2020/12/04 03:23:39;;;;;;;13.83;9.77;;;1.50;99.90;;;;;;5054002;28;20445;-87
2020/12/04 03:26:06;;;;;;;14.53;9.70;;;1.40;99.90;;;;;;5053834;28;20454;-82
2020/12/04 03:28:32;;;;;;;14.67;10.43;;;1.40;99.90;;;;;;5053410;28;20961;-84
2020/12/04 03:30:59;;;;;;;15.87;10.83;;;1.30;99.90;;;;;;5053845;28;20454;-88
2020/12/04 03:33:26;;;;;;;14.00;9.07;;;1.30;99.90;;;;;;5050621;28;20497;-90
2020/12/04 03:35:53;;;;;;;15.50;11.07;;;1.30;99.90;;;;;;5054241;28;20818;-85
2020/12/04 03:38:19;;;;;;;19.73;11.43;;;1.40;99.90;;;;;;5053805;28;20504;-88
2020/12/04 03:40:45;;;;;;;15.60;11.03;;;1.40;99.90;;;;;;5049623;28;20445;-87
2020/12/04 03:43:12;;;;;;;16.07;11.00;;;1.50;99.90;;;;;;5053511;28;20448;-89
2020/12/04 03:45:38;;;;;;;16.20;9.90;;;1.60;99.90;;;;;;5053601;28;20479;-85
2020/12/04 03:48:05;;;;;;;16.50;10.03;;;1.60;99.90;;;;;;5053754;28;20491;-87
2020/12/04 03:50:32;;;;;;;13.73;9.00;;;1.60;99.90;;;;;;5052690;28;20457;-88
2020/12/04 03:52:58;;;;;;;11.23;7.80;;;1.60;99.90;;;;;;5053693;28;20942;-89
2020/12/04 03:55:24;;;;;;;13.93;9.17;;;1.60;99.90;;;;;;5054077;28;20441;-88
2020/12/04 03:57:51;;;;;;;10.97;8.30;;;1.50;99.90;;;;;;5053720;28;20958;-85
2020/12/04 04:00:17;;;;;;;17.20;10.33;;;1.60;99.90;;;;;;5053682;28;20449;-87
2020/12/04 04:02:43;;;;;;;16.57;10.30;;;1.60;99.90;;;;;;5054701;28;20519;-85
2020/12/04 04:05:10;;;;;;;12.50;9.23;;;1.60;99.90;;;;;;5053904;28;20539;-88
2020/12/04 04:07:36;;;;;;;13.00;9.37;;;1.60;99.90;;;;;;5053586;28;20495;-90
2020/12/04 04:10:03;;;;;;;13.80;9.77;;;1.70;99.90;;;;;;5053520;28;20452;-87
2020/12/04 04:12:30;;;;;;;13.33;8.70;;;1.70;99.90;;;;;;5053602;28;20820;-87
2020/12/04 04:14:56;;;;;;;12.73;8.77;;;1.70;99.90;;;;;;5053539;28;20455;-88
2020/12/04 04:17:22;;;;;;;14.67;9.20;;;1.70;99.90;;;;;;5053394;28;20442;-84
2020/12/04 04:19:48;;;;;;;15.83;9.47;;;1.80;99.90;;;;;;5054352;28;20460;-91
2020/12/04 04:22:15;;;;;;;16.03;9.67;;;1.80;99.90;;;;;;5057513;28;20443;-84
2020/12/04 04:24:42;;;;;;;14.07;9.60;;;1.80;99.90;;;;;;5057532;28;20453;-85
2020/12/04 04:27:08;;;;;;;18.20;10.53;;;1.80;99.90;;;;;;5057193;28;20493;-84
2020/12/04 04:29:35;;;;;;;16.73;10.07;;;1.80;99.90;;;;;;5057339;28;20455;-90
2020/12/04 04:32:01;;;;;;;17.23;9.90;;;1.70;99.90;;;;;;5057253;28;20458;-84
2020/12/04 04:34:27;;;;;;;15.23;9.80;;;1.80;99.90;;;;;;5056440;28;20441;-85
2020/12/04 04:36:53;;;;;;;14.70;10.40;;;1.80;99.90;;;;;;5057437;28;20453;-87
2020/12/04 04:39:20;;;;;;;14.83;9.13;;;1.80;99.90;;;;;;5057186;28;20462;-83
2020/12/04 04:41:46;;;;;;;16.00;9.70;;;1.80;99.90;;;;;;5057147;28;20446;-85
2020/12/04 04:44:14;;;;;;;12.27;8.60;;;1.80;99.90;;;;;;5056772;28;20963;-85
2020/12/04 04:46:47;;;;;;;12.37;7.80;;;2.00;99.90;;;;;;5059449;28;20450;-85
2020/12/04 04:49:27;;;;;;;10.80;7.80;;;2.00;99.90;;;;;;5057394;28;20966;-86
2020/12/04 04:51:54;;;;;;;10.67;7.50;;;2.10;99.90;;;;;;5035527;28;20451;-91
2020/12/04 04:54:23;;;;;;;26.90;16.57;;;2.20;99.90;;;;;;5036831;28;20521;-87
2020/12/04 04:56:53;;;;;;;30.83;17.33;;;2.20;99.90;;;;;;5036741;28;20443;-89
2020/12/04 04:59:20;;;;;;;26.10;17.20;;;2.40;99.90;;;;;;5036595;28;20453;-84
2020/12/04 05:01:47;;;;;;;28.90;16.83;;;2.40;99.90;;;;;;5036314;28;20451;-88
2020/12/04 05:04:14;;;;;;;28.40;17.63;;;2.60;99.90;;;;;;5034757;28;20810;-88
2020/12/04 05:06:41;;;;;;;28.30;19.07;;;2.50;99.90;;;;;;5036109;28;20959;-85
2020/12/04 05:09:12;;;;;;;24.37;14.77;;;2.50;99.90;;;;;;5035738;28;20849;-89
2020/12/04 05:11:53;;;;;;;19.23;10.80;;;2.50;99.90;;;;;;5036066;28;20497;-91
2020/12/04 05:14:24;;;;;;;24.37;14.03;;;2.50;99.90;;;;;;5035853;28;20442;-85
2020/12/04 05:16:53;;;;;;;28.10;14.80;;;2.50;99.90;;;;;;5034624;28;20451;-87
2020/12/04 05:19:32;;;;;;;23.67;14.50;;;2.50;99.90;;;;;;5034801;28;20439;-85
2020/12/04 05:22:09;;;;;;;22.30;14.27;;;2.50;99.90;;;;;;5035721;28;20451;-84
2020/12/04 05:24:35;;;;;;;16.63;12.27;;;2.50;99.90;;;;;;5033243;28;20436;-90
2020/12/04 05:27:21;;;;;;;23.40;12.90;;;2.60;99.90;;;;;;5035897;28;20526;-91
2020/12/04 05:29:47;;;;;;;17.57;11.40;;;2.50;99.90;;;;;;5031947;28;20497;-89
2020/12/04 05:32:14;;;;;;;18.73;11.43;;;2.50;99.90;;;;;;5036371;28;20441;-89
2020/12/04 05:34:42;;;;;;;17.30;11.37;;;2.50;99.90;;;;;;5035000;28;20772;-85
2020/12/04 05:37:10;;;;;;;14.47;9.87;;;2.50;99.90;;;;;;5035734;28;20454;-88
2020/12/04 05:39:43;;;;;;;16.10;10.13;;;2.50;99.90;;;;;;5035777;28;20447;-88
2020/12/04 05:42:29;;;;;;;12.00;8.60;;;2.50;99.90;;;;;;5035671;28;20787;-84
2020/12/04 05:44:55;;;;;;;15.37;9.47;;;2.50;99.90;;;;;;5035108;28;20799;-86
2020/12/04 05:47:34;;;;;;;11.30;8.33;;;2.50;99.90;;;;;;5037904;28;20505;-86
2020/12/04 05:50:00;;;;;;;12.30;7.80;;;2.40;99.90;;;;;;5034746;28;20497;-85
2020/12/04 05:52:27;;;;;;;11.83;7.77;;;2.40;99.90;;;;;;5035711;28;20455;-85
2020/12/04 05:54:53;;;;;;;10.27;7.00;;;2.50;99.90;;;;;;5036081;28;20443;-87
2020/12/04 05:57:21;;;;;;;10.87;8.10;;;2.50;99.90;;;;;;5035687;28;20802;-91
2020/12/04 05:59:49;;;;;;;10.60;7.63;;;2.40;99.90;;;;;;5035853;28;20467;-89
2020/12/04 06:02:15;;;;;;;15.50;8.73;;;2.40;99.90;;;;;;5036071;28;20454;-87
2020/12/04 06:04:42;;;;;;;9.30;7.03;;;2.40;99.90;;;;;;5034775;28;20451;-88
2020/12/04 06:07:12;;;;;;;13.07;8.00;;;2.40;99.90;;;;;;5035362;28;20485;-86
2020/12/04 06:09:40;;;;;;;10.80;7.47;;;2.30;99.90;;;;;;5035690;28;20546;-86
2020/12/04 06:12:11;;;;;;;11.20;7.37;;;2.40;99.90;;;;;;5035651;28;20451;-88
2020/12/04 06:14:38;;;;;;;11.93;7.17;;;2.50;99.90;;;;;;5035884;28;20460;-90
2020/12/04 06:17:12;;;;;;;15.03;8.47;;;2.60;99.90;;;;;;5040780;28;20954;-87
2020/12/04 06:19:39;;;;;;;13.50;8.10;;;2.50;99.90;;;;;;5034784;28;20451;-85
2020/12/04 06:22:07;;;;;;;12.23;7.17;;;2.40;99.90;;;;;;5036054;28;20454;-89
2020/12/04 06:24:53;;;;;;;12.87;8.27;;;2.30;99.90;;;;;;5035576;28;20436;-90
2020/12/04 06:27:41;;;;;;;9.33;6.70;;;2.30;99.90;;;;;;5035398;28;20912;-89
2020/12/04 06:30:10;;;;;;;10.50;6.40;;;2.30;99.90;;;;;;5035564;28;20456;-89
2020/12/04 06:32:38;;;;;;;10.63;7.63;;;2.40;99.90;;;;;;5035421;28;20447;-85
2020/12/04 06:35:05;;;;;;;10.13;7.87;;;2.30;99.90;;;;;;5034533;28;20855;-89
2020/12/04 06:37:37;;;;;;;13.30;8.73;;;2.30;99.90;;;;;;5035522;28;20440;-86
2020/12/04 06:40:24;;;;;;;12.27;8.07;;;2.40;99.90;;;;;;5036386;28;20447;-90
2020/12/04 06:42:50;;;;;;;11.90;7.47;;;2.40;99.90;;;;;;5035407;28;20482;-89
2020/12/04 06:45:17;;;;;;;11.30;8.20;;;2.40;99.90;;;;;;5035310;28;20970;-87
2020/12/04 06:47:44;;;;;;;16.30;8.03;;;2.30;99.90;;;;;;5035632;28;20487;-93
2020/12/04 06:50:10;;;;;;;11.63;8.23;;;2.40;99.90;;;;;;5034634;28;20494;-89
2020/12/04 06:52:37;;;;;;;11.10;6.97;;;2.30;99.90;;;;;;5035640;28;20448;-86
2020/12/04 06:55:03;;;;;;;19.10;9.27;;;2.30;99.90;;;;;;5034882;28;20449;-85
2020/12/04 06:57:30;;;;;;;11.47;7.07;;;2.20;99.90;;;;;;5034675;28;20458;-85
2020/12/04 06:59:56;;;;;;;12.90;9.17;;;2.20;99.90;;;;;;5034762;28;20453;-84
2020/12/04 07:02:24;;;;;;;14.97;9.67;;;2.20;99.90;;;;;;5036326;28;20478;-86
2020/12/04 07:04:52;;;;;;;14.60;9.77;;;2.20;99.90;;;;;;5033473;28;20523;-85
2020/12/04 07:07:20;;;;;;;12.67;8.93;;;2.40;99.90;;;;;;5034862;28;20476;-90
2020/12/04 07:09:52;;;;;;;16.40;7.57;;;2.40;99.90;;;;;;5034637;28;20459;-85
2020/12/04 07:12:20;;;;;;;12.03;8.03;;;2.40;99.90;;;;;;5034127;28;20451;-85
2020/12/04 07:14:49;;;;;;;11.27;7.83;;;2.40;99.90;;;;;;5034706;28;20483;-86
2020/12/04 07:17:16;;;;;;;13.30;9.37;;;2.40;99.90;;;;;;5034960;28;20445;-88
2020/12/04 07:19:46;;;;;;;12.00;8.83;;;2.40;99.90;;;;;;5033722;28;20439;-86
2020/12/04 07:22:12;;;;;;;13.87;9.67;;;2.40;99.90;;;;;;5034570;28;20439;-89
2020/12/04 07:24:38;;;;;;;15.43;11.40;;;2.40;99.90;;;;;;5034671;28;20448;-93
2020/12/04 07:27:06;;;;;;;12.13;8.70;;;2.40;99.90;;;;;;5034280;28;20447;-86
2020/12/04 07:29:32;;;;;;;14.97;9.87;;;2.40;99.90;;;;;;5034368;28;20501;-88
2020/12/04 07:31:58;;;;;;;12.90;8.40;;;2.50;99.90;;;;;;5034513;28;20452;-86
2020/12/04 07:34:26;;;;;;;14.00;9.67;;;2.40;99.90;;;;;;5033147;28;20789;-87
2020/12/04 07:36:56;;;;;;;13.73;9.23;;;2.30;99.90;;;;;;5034465;28;20935;-94
2020/12/04 07:39:25;;;;;;;13.23;8.50;;;2.40;99.90;;;;;;5034218;28;20448;-84
2020/12/04 07:41:51;;;;;;;13.67;8.97;;;2.40;99.90;;;;;;5033787;28;20459;-93
2020/12/04 07:44:18;;;;;;;12.10;8.60;;;2.40;99.90;;;;;;5034373;28;20440;-85
2020/12/04 07:46:44;;;;;;;12.73;9.30;;;2.40;99.90;;;;;;5039819;28;20451;-86
2020/12/04 07:49:12;;;;;;;11.73;8.70;;;2.40;99.90;;;;;;5033446;28;20499;-86
2020/12/04 07:51:49;;;;;;;16.07;9.60;;;2.50;99.90;;;;;;5034626;28;20978;-92
2020/12/04 07:54:21;;;;;;;14.63;9.73;;;2.60;99.90;;;;;;5032673;28;20938;-90
2020/12/04 07:56:51;;;;;;;15.90;10.03;;;2.60;99.90;;;;;;5033448;28;20451;-85
2020/12/04 07:59:23;;;;;;;15.97;10.20;;;2.50;99.90;;;;;;5033752;28;20506;-85
2020/12/04 08:01:51;;;;;;;18.27;10.10;;;2.50;99.90;;;;;;5033519;28;20647;-92
2020/12/04 08:04:18;;;;;;;16.63;9.77;;;2.60;99.90;;;;;;5032895;28;20449;-88
2020/12/04 08:06:49;;;;;;;13.47;9.53;;;2.60;99.90;;;;;;5033799;28;20473;-91
2020/12/04 08:09:17;;;;;;;27.40;17.33;;;2.70;99.90;;;;;;5033421;28;20502;-87
2020/12/04 08:11:55;;;;;;;13.80;9.47;;;2.70;99.90;;;;;;5033713;28;20458;-89
2020/12/04 08:14:26;;;;;;;15.80;11.17;;;2.80;99.90;;;;;;5033640;28;20447;-89
2020/12/04 08:16:57;;;;;;;19.10;12.73;;;2.80;99.90;;;;;;5033077;28;20438;-89
2020/12/04 08:19:26;;;;;;;12.33;8.90;;;2.80;99.90;;;;;;5032231;28;20447;-84
2020/12/04 08:21:57;;;;;;;19.90;9.60;;;2.90;99.90;;;;;;5033163;28;20437;-90
2020/12/04 08:24:28;;;;;;;11.73;8.23;;;2.90;99.90;;;;;;5030578;28;20556;-93
2020/12/04 08:27:10;;;;;;;15.30;10.40;;;2.90;99.90;;;;;;5034073;28;20437;-89
2020/12/04 08:29:37;;;;;;;19.60;13.60;;;3.00;99.90;;;;;;5035520;28;20499;-87
2020/12/04 08:32:20;;;;;;;16.37;9.53;;;3.20;99.90;;;;;;5036115;28;20455;-84
2020/12/04 08:34:47;;;;;;;17.43;10.57;;;3.10;99.90;;;;;;5035619;28;20477;-87
2020/12/04 08:37:14;;;;;;;16.13;12.03;;;3.10;99.90;;;;;;5035876;28;20452;-87
2020/12/04 08:39:47;;;;;;;17.43;10.33;;;3.20;99.90;;;;;;5037558;28;20454;-88
2020/12/04 08:42:23;;;;;;;19.37;13.13;;;3.20;99.90;;;;;;5034146;28;20949;-87
2020/12/04 08:45:11;;;;;;;17.73;11.93;;;3.30;99.90;;;;;;5032899;28;20995;-85
2020/12/04 08:47:39;;;;;;;15.07;10.63;;;3.30;99.90;;;;;;5027955;28;20480;-88
2020/12/04 08:50:13;;;;;;;16.37;10.20;;;3.40;99.90;;;;;;5032691;28;20447;-88
2020/12/04 08:52:48;;;;;;;11.67;9.13;;;3.50;99.90;;;;;;5032939;28;20477;-86
2020/12/04 08:55:16;;;;;;;11.27;8.50;;;3.60;99.90;;;;;;5032776;28;20453;-89
2020/12/04 08:57:44;;;;;;;15.23;8.93;;;3.60;99.90;;;;;;5032780;28;20447;-88
2020/12/04 09:00:15;;;;;;;12.47;8.33;;;3.80;99.90;;;;;;5033416;28;20961;-95
2020/12/04 09:02:41;;;;;;;12.33;8.27;;;3.90;99.90;;;;;;5033677;28;20446;-87
2020/12/04 09:05:10;;;;;;;12.87;10.03;;;3.90;99.90;;;;;;5032174;28;20453;-85
2020/12/04 09:07:37;;;;;;;13.50;9.17;;;3.90;99.90;;;;;;5036421;28;20486;-90
2020/12/04 09:10:05;;;;;;;16.07;10.20;;;4.00;99.90;;;;;;5036716;28;20450;-92
2020/12/04 09:12:31;;;;;;;10.30;8.00;;;4.00;99.90;;;;;;5035232;28;20462;-86
2020/12/04 09:14:58;;;;;;;13.37;8.07;;;4.00;99.90;;;;;;5037378;28;20454;-87
2020/12/04 09:17:25;;;;;;;9.10;6.57;;;4.00;99.90;;;;;;5023699;28;20454;-91
2020/12/04 09:19:51;;;;;;;10.43;6.33;;;3.90;99.90;;;;;;5015631;28;20475;-89
2020/12/04 09:22:17;;;;;;;14.83;7.70;;;4.00;99.90;;;;;;5027889;28;20533;-89
2020/12/04 09:24:44;;;;;;;10.00;6.73;;;4.10;99.90;;;;;;5013531;28;20444;-90
2020/12/04 09:27:11;;;;;;;11.47;7.50;;;4.10;99.90;;;;;;5022267;28;20456;-88
2020/12/04 09:29:37;;;;;;;8.50;6.47;;;4.20;99.90;;;;;;5035576;28;20506;-88
2020/12/04 09:32:09;;;;;;;9.40;4.80;;;4.20;99.90;;;;;;5036778;28;20467;-86
2020/12/04 09:34:36;;;;;;;8.90;5.77;;;4.20;99.90;;;;;;5034267;28;20507;-87
2020/12/04 09:37:10;;;;;;;8.50;6.17;;;4.20;99.90;;;;;;5033268;28;20449;-88
2020/12/04 09:39:36;;;;;;;7.97;5.63;;;4.30;99.90;;;;;;5027019;28;20474;-88
2020/12/04 09:42:02;;;;;;;8.40;5.63;;;4.40;99.90;;;;;;5026412;28;20946;-86
2020/12/04 09:44:29;;;;;;;9.63;5.63;;;4.60;99.90;;;;;;5021406;28;20477;-86
2020/12/04 09:46:55;;;;;;;6.17;5.13;;;4.60;99.90;;;;;;5035201;28;20446;-87
2020/12/04 09:49:22;;;;;;;7.70;5.57;;;4.60;99.90;;;;;;5033957;28;20491;-86
2020/12/04 09:51:48;;;;;;;7.80;6.13;;;4.60;99.90;;;;;;5026833;28;20507;-88
2020/12/04 09:54:15;;;;;;;9.27;6.57;;;4.50;99.90;;;;;;5024764;28;20462;-85
2020/12/04 09:56:41;;;;;;;8.73;6.07;;;4.50;99.90;;;;;;5018831;28;20458;-86
2020/12/04 09:59:07;;;;;;;9.40;6.93;;;4.50;99.90;;;;;;5012096;28;20460;-86
2020/12/04 10:01:33;;;;;;;18.43;9.27;;;4.40;99.90;;;;;;5026025;28;20454;-85
2020/12/04 10:04:00;;;;;;;15.73;10.03;;;4.40;99.90;;;;;;5012722;28;20452;-85
2020/12/04 10:06:27;;;;;;;17.13;9.43;;;4.40;99.90;;;;;;5027390;28;20448;-85
2020/12/04 10:08:53;;;;;;;34.93;22.83;;;4.50;99.90;;;;;;5034864;28;20495;-85
2020/12/04 10:11:19;;;;;;;19.40;10.10;;;4.40;99.90;;;;;;5034777;28;20459;-85
2020/12/04 10:13:45;;;;;;;17.43;9.33;;;4.20;99.90;;;;;;5034882;28;20932;-85
2020/12/04 10:16:12;;;;;;;72.93;38.50;;;4.00;99.90;;;;;;5034185;28;20453;-86
2020/12/04 10:18:38;;;;;;;380.30;157.30;;;4.10;99.90;;;;;;5020743;28;20443;-85
2020/12/04 10:21:04;;;;;;;22.93;14.70;;;4.20;99.90;;;;;;5015122;28;20438;-85
2020/12/04 10:23:31;;;;;;;165.77;93.03;;;4.10;99.90;;;;;;5014961;28;20460;-85
2020/12/04 10:26:00;;;;;;;46.20;25.63;;;4.10;99.90;;;;;;5014400;28;20455;-85
2020/12/04 10:28:28;;;;;;;23.90;13.90;;;4.10;99.90;;;;;;5014865;28;20493;-85
2020/12/04 10:30:55;;;;;;;26.83;16.30;;;4.10;99.90;;;;;;5014910;28;20446;-85
2020/12/04 10:33:21;;;;;;;24.87;14.43;;;4.10;99.90;;;;;;5014912;28;20472;-91
2020/12/04 10:35:47;;;;;;;19.90;11.50;;;4.00;99.90;;;;;;5015251;28;20503;-90
2020/12/04 10:38:13;;;;;;;21.53;11.80;;;4.10;99.90;;;;;;5015558;28;20954;-90
2020/12/04 10:40:41;;;;;;;18.80;10.23;;;4.10;99.90;;;;;;5015310;28;20998;-90
2020/12/04 10:43:07;;;;;;;22.47;11.23;;;4.20;99.90;;;;;;5015721;28;20975;-90
2020/12/04 10:45:33;;;;;;;18.67;9.90;;;5.10;99.90;;;;;;5041554;28;20476;-91
2020/12/04 10:48:00;;;;;;;15.80;10.53;;;4.30;99.90;;;;;;5041239;28;20475;-89
2020/12/04 10:50:26;;;;;;;21.53;10.80;;;4.30;99.90;;;;;;5034140;28;20458;-92
2020/12/04 10:52:52;;;;;;;22.17;11.77;;;4.30;99.90;;;;;;5034967;28;20456;-89
2020/12/04 10:55:21;;;;;;;18.33;10.40;;;4.20;99.90;;;;;;5036914;28;20451;-91
2020/12/04 10:57:48;;;;;;;7.30;4.60;;;4.40;99.90;;;;;;5033381;28;20444;-92
2020/12/04 11:00:15;;;;;;;8.80;7.07;;;4.30;99.90;;;;;;5035217;28;20451;-90
2020/12/04 11:02:42;;;;;;;13.20;9.03;;;;;;;;;;5034904;28;20934;-90
2020/12/04 11:07:53;;;;;;;8.60;6.87;;;4.30;99.90;;;;;;5035218;28;20479;-91
2020/12/04 11:10:20;;;;;;;12.07;8.13;;;4.20;99.90;;;;;;5035043;28;20453;-92
2020/12/04 11:12:47;;;;;;;13.13;7.50;;;4.30;99.90;;;;;;5034651;28;20963;-93
2020/12/04 11:15:14;;;;;;;14.10;8.60;;;4.30;99.90;;;;;;5035034;28;20507;-91
2020/12/04 11:17:41;;;;;;;10.50;8.00;;;4.40;99.90;;;;;;5036026;28;20441;-93
2020/12/04 11:20:08;;;;;;;16.63;7.90;;;;;;;;;;5033985;28;20451;-92
2020/12/04 11:22:35;;;;;;;13.63;8.77;;;4.60;99.90;;;;;;5034828;28;20809;-90
2020/12/04 11:25:02;;;;;;;15.03;9.30;;;4.60;99.90;;;;;;5034929;28;20441;-90
2020/12/04 11:27:28;;;;;;;10.63;8.10;;;4.50;99.90;;;;;;5034732;28;20789;-92
2020/12/04 11:29:55;;;;;;;17.30;9.60;;;4.60;99.90;;;;;;5034378;28;20519;-91
2020/12/04 11:32:21;;;;;;;15.13;10.60;;;4.60;99.90;;;;;;5034557;28;20923;-90
2020/12/04 11:34:48;;;;;;;14.70;8.07;;;4.60;99.90;;;;;;5033680;28;20457;-91
2020/12/04 11:37:14;;;;;;;12.13;8.57;;;4.70;99.90;;;;;;5031427;28;20445;-90
2020/12/04 11:39:42;;;;;;;14.23;10.27;;;4.80;99.90;;;;;;5034208;28;20453;-92
2020/12/04 11:42:08;;;;;;;15.23;8.60;;;4.70;99.90;;;;;;5034329;28;20455;-92
2020/12/04 11:44:35;;;;;;;14.57;8.03;;;4.60;99.90;;;;;;5036677;28;20486;-94
2020/12/04 11:47:03;;;;;;;17.47;8.20;;;4.70;99.90;;;;;;5034598;28;20473;-93
2020/12/04 11:49:29;;;;;;;10.60;7.37;;;4.60;99.90;;;;;;5033416;28;20498;-88
2020/12/04 11:51:56;;;;;;;13.60;7.83;;;4.70;99.90;;;;;;5034517;28;20944;-90
2020/12/04 11:54:22;;;;;;;10.93;8.33;;;4.80;99.90;;;;;;5034737;28;20467;-90
2020/12/04 11:56:50;;;;;;;22.33;9.17;;;4.70;99.90;;;;;;5034322;28;20443;-90
2020/12/04 11:59:17;;;;;;;14.63;8.10;;;4.70;99.90;;;;;;5034647;28;20453;-89
2020/12/04 12:01:43;;;;;;;11.73;6.83;;;4.70;99.90;;;;;;5034737;28;20457;-94
2020/12/04 12:04:12;;;;;;;15.83;8.40;;;4.60;99.90;;;;;;5034524;28;20803;-91
2020/12/04 12:06:39;;;;;;;11.50;7.53;;;4.70;99.90;;;;;;5038649;28;20482;-92
2020/12/04 12:09:05;;;;;;;20.07;14.77;;;4.70;99.90;;;;;;5034274;28;20491;-88
2020/12/04 12:11:31;;;;;;;13.40;9.10;;;4.70;99.90;;;;;;5037059;28;20819;-88
2020/12/04 12:13:58;;;;;;;21.70;13.57;;;4.70;99.90;;;;;;5037965;28;20462;-90
2020/12/04 12:16:24;;;;;;;23.53;14.50;;;4.70;99.90;;;;;;5042134;28;20466;-89
2020/12/04 12:18:51;;;;;;;15.17;9.43;;;4.70;99.90;;;;;;5036435;28;20495;-89
2020/12/04 12:21:18;;;;;;;15.43;10.53;;;4.70;99.90;;;;;;5031327;28;20456;-90
2020/12/04 12:23:44;;;;;;;14.80;9.80;;;4.70;99.90;;;;;;5033158;28;20457;-88
2020/12/04 12:26:11;;;;;;;13.60;9.43;;;4.70;99.90;;;;;;5034794;28;20440;-90
2020/12/04 12:28:37;;;;;;;12.63;9.13;;;4.70;99.90;;;;;;5034245;28;20495;-91
2020/12/04 12:31:04;;;;;;;13.90;9.03;;;4.70;99.90;;;;;;5037661;28;20807;-88
2020/12/04 12:33:30;;;;;;;13.60;9.23;;;4.70;99.90;;;;;;5034158;28;20517;-90
2020/12/04 12:35:56;;;;;;;14.23;9.17;;;4.80;99.90;;;;;;5035316;28;20452;-87
2020/12/04 12:38:24;;;;;;;16.60;9.50;;;4.80;99.90;;;;;;5033354;28;20460;-87
2020/12/04 12:40:50;;;;;;;15.90;9.63;;;4.80;99.90;;;;;;5035477;28;20456;-89
2020/12/04 12:43:16;;;;;;;17.83;11.20;;;4.80;99.90;;;;;;5037844;28;20461;-89
2020/12/04 12:45:43;;;;;;;18.60;10.00;;;4.70;99.90;;;;;;5037663;28;20467;-91
2020/12/04 12:48:09;;;;;;;13.50;9.97;;;4.80;99.90;;;;;;5037528;28;20459;-87